createdAt,value
2018-04-14T06:08:01.454Z,10.69
2018-04-14T06:09:01.507Z,10.66
2018-04-14T06:10:01.120Z,10.69
2018-04-14T06:11:01.075Z,10.69
2018-04-14T06:12:01.054Z,10.69
2018-04-14T06:13:01.165Z,10.70
2018-04-14T06:14:01.397Z,10.86
2018-04-14T06:15:00.991Z,10.93
2018-04-14T06:16:00.957Z,10.87
2018-04-14T06:17:00.885Z,10.88
2018-04-14T06:18:00.862Z,10.83
2018-04-14T06:19:00.828Z,10.95
2018-04-14T06:20:01.071Z,11.02
2018-04-14T06:21:00.640Z,11.03
2018-04-14T06:22:00.607Z,11.17
2018-04-14T06:23:00.516Z,11.19
2018-04-14T06:24:00.477Z,11.24
2018-04-14T06:25:00.430Z,11.27
2018-04-14T06:26:00.691Z,11.38
2018-04-14T06:27:00.349Z,11.46
2018-04-14T06:28:00.306Z,11.44
2018-04-14T06:29:00.261Z,11.44
2018-04-14T06:30:00.222Z,11.54
2018-04-14T06:31:00.197Z,11.54
2018-04-14T06:32:00.443Z,11.44
2018-04-14T06:33:00.093Z,11.21
2018-04-14T06:34:00.256Z,11.27
2018-04-14T06:35:00.023Z,11.36
2018-04-14T06:35:59.976Z,11.44
2018-04-14T06:36:59.927Z,11.44
2018-04-14T06:38:00.191Z,11.45
2018-04-14T06:38:59.842Z,11.49
2018-04-14T06:39:59.863Z,11.57
2018-04-14T06:40:59.759Z,11.36
2018-04-14T06:41:59.720Z,11.33
2018-04-14T06:42:59.677Z,11.46
2018-04-14T06:43:59.634Z,11.39
2018-04-14T06:44:59.893Z,11.45
2018-04-14T06:45:59.553Z,11.33
2018-04-14T06:46:59.508Z,11.42
2018-04-14T06:47:59.469Z,11.59
2018-04-14T06:48:59.429Z,11.78
2018-04-14T06:49:59.384Z,12.01
2018-04-14T06:50:59.345Z,12.01
2018-04-14T06:51:59.603Z,12.18
2018-04-14T06:52:59.260Z,12.04
2018-04-14T06:53:59.230Z,11.97
2018-04-14T06:54:59.175Z,11.88
2018-04-14T06:55:59.136Z,11.90
2018-04-14T06:56:59.094Z,11.87
2018-04-14T06:57:59.052Z,11.63
2018-04-14T06:58:59.315Z,11.90
2018-04-14T06:59:58.983Z,12.21
2018-04-14T07:00:59.078Z,11.93
2018-04-14T07:01:58.893Z,12.04
2018-04-14T07:02:58.847Z,12.01
2018-04-14T07:03:58.807Z,12.00
2018-04-14T07:04:58.764Z,11.77
2018-04-14T07:05:59.025Z,11.66
2018-04-14T07:06:58.883Z,11.70
2018-04-14T07:07:58.648Z,11.70
